Time;durP1;ratioP1;P1;durP2;ratioP2;P2;SDS_P1;SDS_P2;PMS_P1;PMS_P2;Temp;Humidity;BMP_temperature;BMP_pressure;BME280_temperature;BME280_humidity;BME280_pressure;Samples;Min_cycle;Max_cycle;Signal;HPM_P1;HPM_P2
2024/02/10 00:00:36;;;;;;;5.87;3.73;;;;;;;;;;5032310;28;20340;-69
2024/02/10 00:03:02;;;;;;;8.90;3.90;;;;;;;;;;5031400;28;20233;-69
2024/02/10 00:05:28;;;;;;;6.53;3.95;;;;;;;;;;5028510;28;20263;-70
2024/02/10 00:07:55;;;;;;;8.20;3.37;;;;;;;;;;5020684;28;20197;-70
2024/02/10 00:10:21;;;;;;;7.85;3.50;;;;;;;;;;5030099;28;20198;-69
2024/02/10 00:12:47;;;;;;;7.90;3.53;;;;;;;;;;5011616;28;20200;-69
2024/02/10 00:15:13;;;;;;;7.85;3.70;;;;;;;;;;5014919;28;20272;-69
2024/02/10 00:17:40;;;;;;;8.33;3.93;;;;;;;;;;5034498;28;20269;-70
2024/02/10 00:20:05;;;;;;;10.38;4.25;;;;;;;;;;5029481;28;20442;-69
2024/02/10 00:22:30;;;;;;;6.00;4.00;;;;;;;;;;5033364;28;20221;-68
2024/02/10 00:24:57;;;;;;;6.20;3.03;;;;;;;;;;5028337;28;20192;-68
2024/02/10 00:27:22;;;;;;;7.40;4.38;;;;;;;;;;5030978;28;20618;-69
2024/02/10 00:29:47;;;;;;;10.37;3.77;;;;;;;;;;5034584;28;20220;-69
2024/02/10 00:32:13;;;;;;;10.57;4.28;;;;;;;;;;5029367;28;20175;-69
2024/02/10 00:34:41;;;;;;;8.55;4.03;;;;;;;;;;5026482;28;20237;-69
2024/02/10 00:37:07;;;;;;;10.23;4.47;;;;;;;;;;5032434;28;20877;-69
2024/02/10 00:39:32;;;;;;;9.90;4.30;;;;;;;;;;5028713;28;20216;-69
2024/02/10 00:41:57;;;;;;;7.57;4.07;;;;;;;;;;5032290;28;20560;-68
2024/02/10 00:44:23;;;;;;;12.50;4.57;;;;;;;;;;5020033;28;20221;-70
2024/02/10 00:46:48;;;;;;;9.07;4.73;;;;;;;;;;5036769;28;20252;-70
2024/02/10 00:49:13;;;;;;;10.23;5.03;;;;;;;;;;5030165;28;20263;-69
2024/02/10 00:51:38;;;;;;;7.23;3.93;;;;;;;;;;5031365;28;20186;-70
2024/02/10 00:54:04;;;;;;;9.63;4.40;;;;;;;;;;5028526;28;20201;-70
2024/02/10 00:56:29;;;;;;;6.70;4.07;;;;;;;;;;5032207;28;20529;-70
2024/02/10 00:58:55;;;;;;;11.63;4.85;;;;;;;;;;5033337;28;20622;-69
2024/02/10 01:01:20;;;;;;;7.97;3.58;;;;;;;;;;5036659;28;20180;-69
2024/02/10 01:03:46;;;;;;;7.33;4.27;;;;;;;;;;5038628;28;20573;-70
2024/02/10 01:06:21;;;;;;;10.50;3.90;;;;;;;;;;5032731;28;20197;-70
2024/02/10 01:08:48;;;;;;;6.75;3.97;;;;;;;;;;5032794;28;20564;-69
2024/02/10 01:11:13;;;;;;;5.72;3.40;;;;;;;;;;5026516;28;20174;-69
2024/02/10 01:13:43;;;;;;;7.50;3.70;;;;;;;;;;5007938;28;20772;-69
2024/02/10 01:16:15;;;;;;;9.40;4.90;;;;;;;;;;5035837;28;20654;-69
2024/02/10 01:18:41;;;;;;;7.23;3.67;;;;;;;;;;5027611;28;20178;-68
2024/02/10 01:21:10;;;;;;;5.90;3.72;;;;;;;;;;5013223;28;20204;-68
2024/02/10 01:23:42;;;;;;;7.20;4.00;;;;;;;;;;5005759;28;20626;-69
2024/02/10 01:26:12;;;;;;;6.63;4.97;;;;;;;;;;5010444;28;20170;-69
2024/02/10 01:28:37;;;;;;;8.70;4.53;;;;;;;;;;4990509;28;20552;-68
2024/02/10 01:31:08;;;;;;;7.03;4.07;;;;;;;;;;5021418;28;20181;-69
2024/02/10 01:33:34;;;;;;;5.90;4.03;;;;;;;;;;5031766;28;20174;-68
2024/02/10 01:35:59;;;;;;;7.50;4.40;;;;;;;;;;5037806;28;20678;-69
2024/02/10 01:38:25;;;;;;;9.18;4.75;;;;;;;;;;5031271;28;20700;-70
2024/02/10 01:40:51;;;;;;;9.20;4.37;;;;;;;;;;5038047;28;20323;-70
2024/02/10 01:43:16;;;;;;;11.07;4.53;;;;;;;;;;5035149;28;20206;-69
2024/02/10 01:45:42;;;;;;;9.57;4.75;;;;;;;;;;5017357;28;20178;-69
2024/02/10 01:48:08;;;;;;;9.13;4.10;;;;;;;;;;5027261;28;20174;-70
2024/02/10 01:50:33;;;;;;;8.95;5.38;;;;;;;;;;5025467;28;20198;-69
2024/02/10 01:52:59;;;;;;;6.10;4.27;;;;;;;;;;5029830;28;20186;-69
2024/02/10 01:55:24;;;;;;;10.23;4.57;;;;;;;;;;5035028;28;20240;-70
2024/02/10 01:57:52;;;;;;;8.73;5.07;;;;;;;;;;5029206;28;20240;-70
2024/02/10 02:00:17;;;;;;;12.83;4.47;;;;;;;;;;5018757;28;20205;-69
2024/02/10 02:02:43;;;;;;;8.53;4.03;;;;;;;;;;5031902;28;20605;-70
2024/02/10 02:05:09;;;;;;;9.37;4.60;;;;;;;;;;5036666;28;20173;-70
2024/02/10 02:07:34;;;;;;;10.48;4.13;;;;;;;;;;5007065;28;20170;-70
2024/02/10 02:09:59;;;;;;;7.23;4.10;;;;;;;;;;5032020;28;20197;-69
2024/02/10 02:12:25;;;;;;;8.00;4.17;;;;;;;;;;5016637;28;20678;-69
2024/02/10 02:14:50;;;;;;;7.18;4.80;;;;;;;;;;5012579;28;20177;-69
2024/02/10 02:17:15;;;;;;;8.17;4.27;;;;;;;;;;5031941;28;20662;-69
2024/02/10 02:19:42;;;;;;;8.87;4.53;;;;;;;;;;5033603;28;20206;-70
2024/02/10 02:22:09;;;;;;;9.03;4.73;;;;;;;;;;5026226;28;20277;-70
2024/02/10 02:24:34;;;;;;;9.15;4.20;;;;;;;;;;5018681;28;20189;-70
2024/02/10 02:27:00;;;;;;;8.30;4.18;;;;;;;;;;5019299;28;20569;-70
2024/02/10 02:29:25;;;;;;;7.55;3.78;;;;;;;;;;5017224;28;20194;-68
2024/02/10 02:31:53;;;;;;;9.23;4.50;;;;;;;;;;5038197;28;20185;-69
2024/02/10 02:34:20;;;;;;;8.18;4.70;;;;;;;;;;5027825;28;20205;-69
2024/02/10 02:36:46;;;;;;;6.03;4.20;;;;;;;;;;5018429;28;20665;-70
2024/02/10 02:39:11;;;;;;;6.40;4.13;;;;;;;;;;5044191;22;20728;-67
2024/02/10 02:41:36;;;;;;;7.60;4.97;;;;;;;;;;5041071;28;20178;-67
2024/02/10 02:44:01;;;;;;;7.20;4.22;;;;;;;;;;5044440;28;20585;-67
2024/02/10 02:46:26;;;;;;;6.73;4.60;;;;;;;;;;5042428;28;20641;-68
2024/02/10 02:48:54;;;;;;;7.65;4.47;;;;;;;;;;5043364;28;20182;-67
2024/02/10 02:51:22;;;;;;;7.00;4.72;;;;;;;;;;5048803;28;20190;-67
2024/02/10 02:53:51;;;;;;;13.47;4.60;;;;;;;;;;5050259;28;20566;-66
2024/02/10 02:56:18;;;;;;;9.25;4.45;;;;;;;;;;5047196;28;20197;-67
2024/02/10 02:58:43;;;;;;;7.73;4.47;;;;;;;;;;5027208;28;20255;-67
2024/02/10 03:01:10;;;;;;;12.13;4.70;;;;;;;;;;5048655;28;20633;-67
2024/02/10 03:03:37;;;;;;;7.60;4.50;;;;;;;;;;5025895;28;20202;-67
2024/02/10 03:06:02;;;;;;;8.00;4.47;;;;;;;;;;5047315;28;20255;-67
2024/02/10 03:08:29;;;;;;;7.78;4.15;;;;;;;;;;5049175;28;20677;-67
2024/02/10 03:10:54;;;;;;;6.53;4.37;;;;;;;;;;5043452;28;20201;-67
2024/02/10 03:13:19;;;;;;;9.88;4.28;;;;;;;;;;5049614;28;20560;-65
2024/02/10 03:15:46;;;;;;;9.13;4.30;;;;;;;;;;5049011;28;20244;-67
2024/02/10 03:18:12;;;;;;;6.03;4.07;;;;;;;;;;5034618;28;20185;-66
2024/02/10 03:20:37;;;;;;;7.00;4.27;;;;;;;;;;5040320;28;20263;-66
2024/02/10 03:23:02;;;;;;;12.07;4.63;;;;;;;;;;5046724;28;20316;-67
2024/02/10 03:25:28;;;;;;;6.87;3.67;;;;;;;;;;5049780;28;20593;-67
2024/02/10 03:27:53;;;;;;;6.90;4.07;;;;;;;;;;5051577;28;20189;-67
2024/02/10 03:30:18;;;;;;;7.90;4.03;;;;;;;;;;5050411;28;20204;-67
2024/02/10 03:32:44;;;;;;;9.40;4.40;;;;;;;;;;5048863;28;20193;-67
2024/02/10 03:35:09;;;;;;;6.67;4.20;;;;;;;;;;5052622;28;20645;-67
2024/02/10 03:37:35;;;;;;;7.57;5.47;;;;;;;;;;5034101;28;20188;-67
2024/02/10 03:40:01;;;;;;;7.97;4.57;;;;;;;;;;5049820;28;20688;-67
2024/02/10 03:42:26;;;;;;;6.43;4.40;;;;;;;;;;5052079;28;20268;-67
2024/02/10 03:44:52;;;;;;;6.70;3.87;;;;;;;;;;5051875;28;20246;-67
2024/02/10 03:47:17;;;;;;;6.43;4.10;;;;;;;;;;5033028;28;20664;-67
2024/02/10 03:49:43;;;;;;;5.60;3.70;;;;;;;;;;5050499;28;20212;-66
2024/02/10 03:52:08;;;;;;;8.83;5.07;;;;;;;;;;5047843;28;20186;-67
2024/02/10 03:54:33;;;;;;;6.97;4.43;;;;;;;;;;5052885;28;20511;-66
2024/02/10 03:56:58;;;;;;;6.67;4.20;;;;;;;;;;5046366;28;20313;-67
2024/02/10 03:59:23;;;;;;;8.30;4.23;;;;;;;;;;5050298;28;20193;-67
2024/02/10 04:01:49;;;;;;;6.97;4.40;;;;;;;;;;5052006;28;20194;-67
2024/02/10 04:04:14;;;;;;;6.20;4.50;;;;;;;;;;5050962;28;20569;-67
2024/02/10 04:06:39;;;;;;;8.05;5.05;;;;;;;;;;5052476;28;20189;-67
2024/02/10 04:09:05;;;;;;;5.20;4.10;;;;;;;;;;5050171;28;20575;-67
2024/02/10 04:11:31;;;;;;;8.90;3.97;;;;;;;;;;5049533;28;20668;-67
2024/02/10 04:13:58;;;;;;;6.55;4.45;;;;;;;;;;5053542;28;20182;-66
2024/02/10 04:16:24;;;;;;;6.93;4.50;;;;;;;;;;5033503;28;20276;-67
2024/02/10 04:18:49;;;;;;;10.13;4.10;;;;;;;;;;5051902;28;20277;-67
2024/02/10 04:21:14;;;;;;;9.67;4.30;;;;;;;;;;5050413;28;20182;-65
2024/02/10 04:23:40;;;;;;;5.90;3.80;;;;;;;;;;5052704;28;20205;-67
2024/02/10 04:26:05;;;;;;;6.77;4.87;;;;;;;;;;5050920;28;20174;-67
2024/02/10 04:28:30;;;;;;;8.73;4.50;;;;;;;;;;5051341;28;20175;-65
2024/02/10 04:30:56;;;;;;;7.27;4.30;;;;;;;;;;5050331;28;20198;-67
2024/02/10 04:33:21;;;;;;;9.13;4.13;;;;;;;;;;5041603;28;20692;-67
2024/02/10 04:35:47;;;;;;;7.37;4.27;;;;;;;;;;5051213;28;20566;-66
2024/02/10 04:38:13;;;;;;;7.45;4.88;;;;;;;;;;5053182;28;20636;-67
2024/02/10 04:40:38;;;;;;;8.48;4.50;;;;;;;;;;5035833;28;20713;-68
2024/02/10 04:43:04;;;;;;;9.32;4.20;;;;;;;;;;5050824;28;20212;-66
2024/02/10 04:45:30;;;;;;;9.70;4.95;;;;;;;;;;5051576;28;20189;-67
2024/02/10 04:47:56;;;;;;;8.55;5.13;;;;;;;;;;5028624;28;20312;-67
2024/02/10 04:50:21;;;;;;;7.43;4.10;;;;;;;;;;5046842;28;20288;-67
2024/02/10 04:52:46;;;;;;;5.90;4.28;;;;;;;;;;5050418;28;20181;-67
2024/02/10 04:55:21;;;;;;;5.75;3.78;;;;;;;;;;5052116;28;20178;-67
2024/02/10 04:57:46;;;;;;;11.63;4.20;;;;;;;;;;5048070;28;20196;-67
2024/02/10 05:00:15;;;;;;;5.57;4.45;;;;;;;;;;5050444;28;20228;-67
2024/02/10 05:02:40;;;;;;;7.05;4.55;;;;;;;;;;5050451;28;20201;-67
2024/02/10 05:05:06;;;;;;;6.75;3.83;;;;;;;;;;5051070;28;20605;-67
2024/02/10 05:07:31;;;;;;;5.50;3.73;;;;;;;;;;5053759;28;20224;-67
2024/02/10 05:10:00;;;;;;;5.57;3.95;;;;;;;;;;5041241;28;20221;-65
2024/02/10 05:12:26;;;;;;;6.17;4.00;;;;;;;;;;5032681;28;20277;-66
2024/02/10 05:14:51;;;;;;;6.47;3.95;;;;;;;;;;5050824;28;20256;-67
2024/02/10 05:17:16;;;;;;;6.35;4.05;;;;;;;;;;5051826;28;20170;-67
2024/02/10 05:19:42;;;;;;;8.07;3.45;;;;;;;;;;5050540;28;20689;-66
2024/02/10 05:22:10;;;;;;;7.93;3.83;;;;;;;;;;5048624;28;20184;-66
2024/02/10 05:24:40;;;;;;;4.15;3.08;;;;;;;;;;5031510;28;20209;-67
2024/02/10 05:27:07;;;;;;;12.43;4.15;;;;;;;;;;5044470;28;20637;-66
2024/02/10 05:29:33;;;;;;;6.53;4.18;;;;;;;;;;5044226;28;20603;-67
2024/02/10 05:31:58;;;;;;;6.80;3.53;;;;;;;;;;5050446;28;20181;-66
2024/02/10 05:34:23;;;;;;;8.17;3.97;;;;;;;;;;5050873;28;20192;-67
2024/02/10 05:36:49;;;;;;;4.77;3.50;;;;;;;;;;5050163;28;20178;-67
2024/02/10 05:39:14;;;;;;;6.53;5.20;;;;;;;;;;5048196;28;20338;-66
2024/02/10 05:41:39;;;;;;;6.40;3.70;;;;;;;;;;5050058;28;20571;-66
2024/02/10 05:44:05;;;;;;;6.38;3.80;;;;;;;;;;5051083;28;20212;-67
2024/02/10 05:46:30;;;;;;;5.57;3.97;;;;;;;;;;5045186;28;20181;-67
2024/02/10 05:48:55;;;;;;;6.13;3.38;;;;;;;;;;5043540;28;20186;-67
2024/02/10 05:51:24;;;;;;;4.18;3.15;;;;;;;;;;5049964;28;20531;-67
2024/02/10 05:53:52;;;;;;;4.20;3.33;;;;;;;;;;5050109;28;20184;-66
2024/02/10 05:56:17;;;;;;;5.47;4.15;;;;;;;;;;5030825;28;20187;-67
2024/02/10 05:58:42;;;;;;;6.70;3.70;;;;;;;;;;5050120;28;20189;-67
2024/02/10 06:01:10;;;;;;;6.13;3.78;;;;;;;;;;5050011;28;20203;-67
2024/02/10 06:03:36;;;;;;;5.63;3.42;;;;;;;;;;5050549;28;20198;-67
2024/02/10 06:06:05;;;;;;;6.57;3.65;;;;;;;;;;5040860;28;20551;-67
2024/02/10 06:08:30;;;;;;;8.38;3.60;;;;;;;;;;5047906;28;20545;-65
2024/02/10 06:10:56;;;;;;;5.63;4.07;;;;;;;;;;5044284;28;20201;-67
2024/02/10 06:13:23;;;;;;;4.50;3.30;;;;;;;;;;5049217;28;20178;-67
2024/02/10 06:15:48;;;;;;;6.00;3.33;;;;;;;;;;5048922;28;20737;-66
2024/02/10 06:18:14;;;;;;;4.75;3.92;;;;;;;;;;5050602;28;20256;-67
2024/02/10 06:20:40;;;;;;;6.68;3.35;;;;;;;;;;5050013;28;20296;-66
2024/02/10 06:23:05;;;;;;;6.68;3.88;;;;;;;;;;5025725;28;20230;-67
2024/02/10 06:25:30;;;;;;;9.73;3.80;;;;;;;;;;5027719;28;20197;-67
2024/02/10 06:27:56;;;;;;;6.25;3.78;;;;;;;;;;5047674;28;20223;-65
2024/02/10 06:30:24;;;;;;;5.65;3.40;;;;;;;;;;5049533;28;20672;-68
2024/02/10 06:32:49;;;;;;;6.75;3.78;;;;;;;;;;5050033;28;20653;-67
2024/02/10 06:35:19;;;;;;;5.63;3.30;;;;;;;;;;5043423;28;20235;-68
2024/02/10 06:37:47;;;;;;;5.78;3.45;;;;;;;;;;5041435;28;20629;-68
2024/02/10 06:40:15;;;;;;;6.20;3.88;;;;;;;;;;5043311;28;20684;-68
2024/02/10 06:42:42;;;;;;;6.35;3.47;;;;;;;;;;5048315;28;20197;-67
2024/02/10 06:45:11;;;;;;;5.90;3.15;;;;;;;;;;5048899;28;20633;-68
2024/02/10 06:47:37;;;;;;;5.55;3.58;;;;;;;;;;5050370;28;20170;-68
2024/02/10 06:50:04;;;;;;;6.13;3.30;;;;;;;;;;5032399;28;20566;-68
2024/02/10 06:52:32;;;;;;;5.63;3.13;;;;;;;;;;5050624;28;20224;-68
2024/02/10 06:54:57;;;;;;;4.88;3.28;;;;;;;;;;5045367;28;20597;-67
2024/02/10 06:57:23;;;;;;;4.40;3.20;;;;;;;;;;5041858;28;20297;-68
2024/02/10 06:59:49;;;;;;;6.18;3.63;;;;;;;;;;5032481;28;20197;-68
2024/02/10 07:02:14;;;;;;;6.70;3.40;;;;;;;;;;5044367;28;20178;-68
2024/02/10 07:04:41;;;;;;;7.00;4.18;;;;;;;;;;5052013;28;20249;-68
2024/02/10 07:07:06;;;;;;;4.72;3.17;;;;;;;;;;5052014;28;20629;-66
2024/02/10 07:09:35;;;;;;;7.47;3.67;;;;;;;;;;5050593;28;20280;-67
2024/02/10 07:12:00;;;;;;;5.70;3.28;;;;;;;;;;5051949;28;20181;-67
2024/02/10 07:14:26;;;;;;;5.93;3.58;;;;;;;;;;5052035;28;20174;-66
2024/02/10 07:16:51;;;;;;;4.35;3.15;;;;;;;;;;5050533;28;20268;-67
2024/02/10 07:19:16;;;;;;;9.10;3.70;;;;;;;;;;5032926;28;20190;-67
2024/02/10 07:21:45;;;;;;;6.73;3.50;;;;;;;;;;5044786;28;20178;-66
2024/02/10 07:24:12;;;;;;;7.25;3.35;;;;;;;;;;5045424;28;20615;-65
2024/02/10 07:26:37;;;;;;;9.43;3.83;;;;;;;;;;5051140;28;20177;-66
2024/02/10 07:29:03;;;;;;;5.07;3.70;;;;;;;;;;5052731;28;20193;-67
2024/02/10 07:31:28;;;;;;;6.70;3.38;;;;;;;;;;5052804;28;20558;-67
2024/02/10 07:33:58;;;;;;;5.70;3.83;;;;;;;;;;5053183;28;20190;-66
2024/02/10 07:36:35;;;;;;;6.43;3.83;;;;;;;;;;5053021;28;20224;-67
2024/02/10 07:39:00;;;;;;;8.93;3.37;;;;;;;;;;5052308;28;20599;-66
2024/02/10 07:41:25;;;;;;;6.78;3.67;;;;;;;;;;5040483;28;20280;-66
2024/02/10 07:43:51;;;;;;;5.50;3.28;;;;;;;;;;5049829;28;20263;-66
2024/02/10 07:46:16;;;;;;;4.83;3.57;;;;;;;;;;5033186;28;20173;-66
2024/02/10 07:48:42;;;;;;;7.47;3.45;;;;;;;;;;5052404;28;20170;-65
2024/02/10 07:51:07;;;;;;;10.63;4.00;;;;;;;;;;5051814;28;20583;-66
2024/02/10 07:53:33;;;;;;;15.95;3.95;;;;;;;;;;5052285;28;20179;-66
2024/02/10 07:55:58;;;;;;;6.82;4.07;;;;;;;;;;5041610;28;20189;-66
2024/02/10 07:58:25;;;;;;;7.70;3.58;;;;;;;;;;5048997;28;20198;-67
2024/02/10 08:00:50;;;;;;;6.63;3.63;;;;;;;;;;5048474;28;20194;-66
2024/02/10 08:03:15;;;;;;;5.20;3.25;;;;;;;;;;5051644;28;20196;-66
2024/02/10 08:05:42;;;;;;;5.60;3.63;;;;;;;;;;5051706;28;20284;-66
2024/02/10 08:08:09;;;;;;;4.03;3.53;;;;;;;;;;5049121;28;20284;-66
2024/02/10 08:10:34;;;;;;;6.72;3.95;;;;;;;;;;5035844;28;20198;-67
2024/02/10 08:12:59;;;;;;;5.68;3.63;;;;;;;;;;5048987;28;20188;-66
2024/02/10 08:15:30;;;;;;;5.82;2.95;;;;;;;;;;5050100;28;20211;-66
2024/02/10 08:17:58;;;;;;;6.35;3.10;;;;;;;;;;5035948;28;20178;-66
2024/02/10 08:20:24;;;;;;;4.40;3.20;;;;;;;;;;5047789;28;20637;-65
2024/02/10 08:22:49;;;;;;;4.78;3.58;;;;;;;;;;5051672;28;20284;-66
2024/02/10 08:25:15;;;;;;;7.43;4.13;;;;;;;;;;5052224;28;20173;-66
2024/02/10 08:27:40;;;;;;;6.70;3.38;;;;;;;;;;5049479;28;20220;-66
2024/02/10 08:30:06;;;;;;;6.05;3.45;;;;;;;;;;5051533;28;20186;-66
2024/02/10 08:32:32;;;;;;;4.97;3.28;;;;;;;;;;5059171;28;20177;-66
2024/02/10 08:35:00;;;;;;;4.28;3.55;;;;;;;;;;5050481;28;20196;-65
2024/02/10 08:37:30;;;;;;;4.60;3.65;;;;;;;;;;5050316;28;20173;-66
2024/02/10 08:39:57;;;;;;;8.40;4.00;;;;;;;;;;5060862;22;20230;-72
2024/02/10 08:42:23;;;;;;;5.03;4.07;;;;;;;;;;5038412;28;20558;-72
2024/02/10 08:44:49;;;;;;;5.30;3.70;;;;;;;;;;5039496;28;20185;-71
2024/02/10 08:47:15;;;;;;;4.82;3.28;;;;;;;;;;5032851;28;20227;-72
2024/02/10 08:49:40;;;;;;;4.88;3.25;;;;;;;;;;5035762;28;20701;-70
2024/02/10 08:52:11;;;;;;;6.35;3.53;;;;;;;;;;5019150;28;20595;-71
2024/02/10 08:54:39;;;;;;;5.68;4.18;;;;;;;;;;5020813;28;20279;-71
2024/02/10 08:57:05;;;;;;;7.75;4.38;;;;;;;;;;5027821;28;20183;-71
2024/02/10 08:59:35;;;;;;;5.63;4.78;;;;;;;;;;5021081;28;20536;-70
2024/02/10 09:02:04;;;;;;;9.93;5.05;;;;;;;;;;5006770;28;20185;-70
2024/02/10 09:04:30;;;;;;;6.65;3.65;;;;;;;;;;5026056;28;20202;-71
2024/02/10 09:06:55;;;;;;;5.53;4.15;;;;;;;;;;5009876;28;20277;-71
2024/02/10 09:09:21;;;;;;;4.65;3.58;;;;;;;;;;5023546;28;20197;-71
2024/02/10 09:11:47;;;;;;;5.57;4.18;;;;;;;;;;5011143;28;20678;-71
2024/02/10 09:14:12;;;;;;;5.30;3.88;;;;;;;;;;5010657;28;20216;-71
2024/02/10 09:16:38;;;;;;;5.43;3.50;;;;;;;;;;5019529;28;20214;-71
2024/02/10 09:19:03;;;;;;;4.45;3.83;;;;;;;;;;5019287;28;20179;-71
2024/02/10 09:21:28;;;;;;;5.78;3.67;;;;;;;;;;5019884;28;20681;-71
2024/02/10 09:23:54;;;;;;;5.85;4.13;;;;;;;;;;5024560;28;20269;-70
2024/02/10 09:26:20;;;;;;;5.95;3.78;;;;;;;;;;5023221;28;20611;-71
2024/02/10 09:28:45;;;;;;;5.95;3.80;;;;;;;;;;5024990;28;20677;-70
2024/02/10 09:31:14;;;;;;;4.43;3.28;;;;;;;;;;5022003;28;20289;-70
2024/02/10 09:33:39;;;;;;;6.45;3.15;;;;;;;;;;5022641;28;20186;-70
2024/02/10 09:36:08;;;;;;;9.02;4.05;;;;;;;;;;5019153;28;20581;-70
2024/02/10 09:38:33;;;;;;;5.50;3.65;;;;;;;;;;5019837;28;20190;-71
2024/02/10 09:40:59;;;;;;;5.03;3.70;;;;;;;;;;5024329;28;20697;-71
2024/02/10 09:43:31;;;;;;;5.07;3.88;;;;;;;;;;5019802;28;20660;-71
2024/02/10 09:45:57;;;;;;;8.05;3.80;;;;;;;;;;5020512;28;20182;-71
2024/02/10 09:48:23;;;;;;;6.03;3.67;;;;;;;;;;5008036;28;20174;-71
2024/02/10 09:50:48;;;;;;;6.88;4.10;;;;;;;;;;5023667;28;20293;-71
2024/02/10 09:53:14;;;;;;;5.97;3.83;;;;;;;;;;5023697;28;20261;-71
2024/02/10 09:55:40;;;;;;;9.85;3.63;;;;;;;;;;5028308;28;20627;-71
2024/02/10 09:58:06;;;;;;;5.32;3.13;;;;;;;;;;5006072;28;20655;-71
2024/02/10 10:00:32;;;;;;;5.55;3.33;;;;;;;;;;5028476;28;20198;-71
2024/02/10 10:03:00;;;;;;;5.82;3.55;;;;;;;;;;5019176;28;20203;-71
2024/02/10 10:05:29;;;;;;;5.53;3.45;;;;;;;;;;5004967;28;20177;-71
2024/02/10 10:07:54;;;;;;;9.85;4.18;;;;;;;;;;5021306;28;20180;-71
2024/02/10 10:10:19;;;;;;;6.88;4.32;;;;;;;;;;5021502;28;20190;-71
2024/02/10 10:12:45;;;;;;;4.10;3.17;;;;;;;;;;5024647;28;20210;-71
2024/02/10 10:15:10;;;;;;;8.40;3.45;;;;;;;;;;5023355;28;20392;-71
2024/02/10 10:17:38;;;;;;;6.90;3.63;;;;;;;;;;5026188;28;20181;-71
2024/02/10 10:20:09;;;;;;;4.55;3.67;;;;;;;;;;5022222;28;20201;-71
2024/02/10 10:22:36;;;;;;;5.25;3.53;;;;;;;;;;5009979;28;20210;-71
2024/02/10 10:25:02;;;;;;;8.10;3.45;;;;;;;;;;5019945;28;20478;-71
2024/02/10 10:27:29;;;;;;;7.53;3.25;;;;;;;;;;5020676;28;20170;-71
2024/02/10 10:29:54;;;;;;;3.63;3.00;;;;;;;;;;5023658;28;20198;-71
2024/02/10 10:32:20;;;;;;;6.20;3.30;;;;;;;;;;5018135;28;20171;-71
2024/02/10 10:34:46;;;;;;;4.57;3.42;;;;;;;;;;5007395;28;20566;-71
2024/02/10 10:37:12;;;;;;;9.52;3.67;;;;;;;;;;5024626;28;20720;-71
2024/02/10 10:39:40;;;;;;;7.35;3.20;;;;;;;;;;5025652;28;20210;-71
2024/02/10 10:42:07;;;;;;;5.40;3.15;;;;;;;;;;5022222;28;20191;-71
2024/02/10 10:44:34;;;;;;;5.72;4.10;;;;;;;;;;5025138;28;20789;-70
2024/02/10 10:46:59;;;;;;;5.07;3.13;;;;;;;;;;5025141;28;20186;-70
2024/02/10 10:49:25;;;;;;;5.05;3.38;;;;;;;;;;5025196;28;20226;-70
2024/02/10 10:51:59;;;;;;;3.88;3.08;;;;;;;;;;5024546;28;20182;-70
2024/02/10 10:54:26;;;;;;;5.47;2.88;;;;;;;;;;5025359;28;20185;-70
2024/02/10 10:56:51;;;;;;;6.93;3.35;;;;;;;;;;5024810;28;20269;-71
2024/02/10 10:59:17;;;;;;;4.78;3.30;;;;;;;;;;5027144;28;20332;-70
2024/02/10 11:01:43;;;;;;;3.95;3.00;;;;;;;;;;5026787;28;20221;-70
2024/02/10 11:04:12;;;;;;;4.38;3.35;;;;;;;;;;5018706;28;20214;-70
2024/02/10 11:06:42;;;;;;;6.28;4.03;;;;;;;;;;5023736;28;20179;-70
2024/02/10 11:09:07;;;;;;;8.20;4.32;;;;;;;;;;5021293;28;20171;-70
2024/02/10 11:11:37;;;;;;;7.00;3.95;;;;;;;;;;5027748;28;20175;-70
2024/02/10 11:14:09;;;;;;;5.68;3.78;;;;;;;;;;5024053;28;20189;-70
2024/02/10 11:16:34;;;;;;;7.65;3.72;;;;;;;;;;5022656;28;20279;-71
2024/02/10 11:19:02;;;;;;;6.60;4.32;;;;;;;;;;5028742;28;20671;-70
2024/02/10 11:21:30;;;;;;;4.70;3.78;;;;;;;;;;5023467;28;20181;-70
2024/02/10 11:23:56;;;;;;;5.65;3.10;;;;;;;;;;5012491;28;20194;-70
2024/02/10 11:26:24;;;;;;;6.82;3.08;;;;;;;;;;5007358;28;20178;-71
2024/02/10 11:28:56;;;;;;;5.57;3.20;;;;;;;;;;5006357;28;20635;-70
2024/02/10 11:31:22;;;;;;;5.28;3.67;;;;;;;;;;5027442;28;20187;-70
2024/02/10 11:33:47;;;;;;;5.10;3.38;;;;;;;;;;5030450;28;20248;-71
2024/02/10 11:36:12;;;;;;;5.70;3.00;;;;;;;;;;5029894;28;20256;-71
2024/02/10 11:38:38;;;;;;;5.45;3.85;;;;;;;;;;5006377;28;20658;-70
2024/02/10 11:41:05;;;;;;;5.45;3.78;;;;;;;;;;5024920;28;20245;-70
2024/02/10 11:43:30;;;;;;;4.68;3.63;;;;;;;;;;5028509;28;20723;-71
2024/02/10 11:45:55;;;;;;;5.82;4.18;;;;;;;;;;5030200;28;20174;-71
2024/02/10 11:48:21;;;;;;;4.80;3.58;;;;;;;;;;5023479;28;20190;-71
2024/02/10 11:50:46;;;;;;;4.28;3.20;;;;;;;;;;5027226;28;20237;-71
2024/02/10 11:53:12;;;;;;;5.18;3.78;;;;;;;;;;5027742;28;20196;-70
2024/02/10 11:55:41;;;;;;;5.45;3.63;;;;;;;;;;5011990;28;20190;-72
2024/02/10 11:58:07;;;;;;;8.07;3.38;;;;;;;;;;5027131;28;20232;-70
2024/02/10 12:00:32;;;;;;;4.85;3.70;;;;;;;;;;5032994;28;20594;-70
2024/02/10 12:02:58;;;;;;;4.50;2.80;;;;;;;;;;5029630;28;20263;-70
2024/02/10 12:05:27;;;;;;;4.45;3.15;;;;;;;;;;5030824;28;20649;-70
2024/02/10 12:07:52;;;;;;;7.18;3.30;;;;;;;;;;5013247;28;20815;-71
2024/02/10 12:10:18;;;;;;;11.35;2.88;;;;;;;;;;5028196;28;20230;-70
2024/02/10 12:12:50;;;;;;;7.93;3.28;;;;;;;;;;5032364;28;20228;-71
2024/02/10 12:15:15;;;;;;;4.60;2.92;;;;;;;;;;5027260;28;20261;-71
2024/02/10 12:17:40;;;;;;;3.42;2.53;;;;;;;;;;5032304;28;20772;-70
2024/02/10 12:20:05;;;;;;;6.07;2.85;;;;;;;;;;5027244;28;20725;-71
2024/02/10 12:22:31;;;;;;;7.10;3.15;;;;;;;;;;5009581;28;20642;-71
2024/02/10 12:24:56;;;;;;;4.55;2.72;;;;;;;;;;5033868;28;20273;-71
2024/02/10 12:27:25;;;;;;;5.25;3.30;;;;;;;;;;5029449;28;20650;-71
2024/02/10 12:29:51;;;;;;;4.03;2.78;;;;;;;;;;5025010;28;20819;-73
2024/02/10 12:32:16;;;;;;;2.97;2.38;;;;;;;;;;5022972;28;20274;-71
2024/02/10 12:34:41;;;;;;;5.50;2.70;;;;;;;;;;5027698;28;20205;-71
2024/02/10 12:37:07;;;;;;;4.78;3.05;;;;;;;;;;5024204;28;20179;-71
2024/02/10 12:39:32;;;;;;;5.28;3.28;;;;;;;;;;5027802;28;20614;-69
2024/02/10 12:41:59;;;;;;;3.95;3.22;;;;;;;;;;5030577;28;20256;-70
2024/02/10 12:44:24;;;;;;;5.25;3.50;;;;;;;;;;5021032;28;20198;-72
2024/02/10 12:46:49;;;;;;;4.78;3.22;;;;;;;;;;5024352;28;20179;-71
2024/02/10 12:49:14;;;;;;;4.32;3.50;;;;;;;;;;5028292;28;20181;-71
2024/02/10 12:51:40;;;;;;;5.65;3.25;;;;;;;;;;5026017;28;20182;-70
2024/02/10 12:54:05;;;;;;;4.03;3.33;;;;;;;;;;5027184;28;20606;-70
2024/02/10 12:56:31;;;;;;;4.53;3.97;;;;;;;;;;5024621;28;20245;-70
2024/02/10 12:58:56;;;;;;;6.65;3.67;;;;;;;;;;5030347;28;20646;-71
2024/02/10 13:01:24;;;;;;;6.32;4.28;;;;;;;;;;5026264;28;20245;-71
2024/02/10 13:03:49;;;;;;;5.35;3.72;;;;;;;;;;5003788;28;20248;-70
2024/02/10 13:06:14;;;;;;;5.47;4.00;;;;;;;;;;5023755;28;20614;-71
2024/02/10 13:08:40;;;;;;;5.47;3.45;;;;;;;;;;5028198;28;20174;-71
2024/02/10 13:11:05;;;;;;;5.32;3.15;;;;;;;;;;5027407;28;20755;-70
2024/02/10 13:13:30;;;;;;;6.63;3.90;;;;;;;;;;5026171;28;20612;-71
2024/02/10 13:15:55;;;;;;;6.03;3.50;;;;;;;;;;5028802;28;20198;-69
2024/02/10 13:18:20;;;;;;;5.53;3.65;;;;;;;;;;5026806;28;20185;-70
2024/02/10 13:20:46;;;;;;;6.75;4.05;;;;;;;;;;5030075;28;20637;-69
2024/02/10 13:23:11;;;;;;;5.43;3.70;;;;;;;;;;5023437;28;20198;-70
2024/02/10 13:25:36;;;;;;;5.80;3.85;;;;;;;;;;5027320;28;20175;-70
2024/02/10 13:28:01;;;;;;;5.07;3.63;;;;;;;;;;5006622;28;20190;-69
2024/02/10 13:30:26;;;;;;;6.40;4.32;;;;;;;;;;5024284;28;20202;-70
2024/02/10 13:33:00;;;;;;;7.93;4.30;;;;;;;;;;5026866;28;20661;-71
2024/02/10 13:35:25;;;;;;;5.28;4.25;;;;;;;;;;5025081;28;20175;-71
2024/02/10 14:12:50;;;;;;;6.85;3.95;;;;;;;;;;5029005;28;20193;-70
2024/02/10 14:15:16;;;;;;;5.93;4.35;;;;;;;;;;5026077;28;20174;-72
2024/02/10 14:17:45;;;;;;;6.78;4.57;;;;;;;;;;5021725;28;20230;-73
2024/02/10 14:20:22;;;;;;;9.30;5.00;;;;;;;;;;5018955;28;20194;-73
2024/02/10 14:22:53;;;;;;;6.55;4.82;;;;;;;;;;5027635;28;20640;-72
2024/02/10 14:25:25;;;;;;;5.78;4.40;;;;;;;;;;5024133;28;20253;-72
2024/02/10 14:28:04;;;;;;;5.38;4.88;;;;;;;;;;5015874;28;20185;-72
2024/02/10 14:30:37;;;;;;;6.20;5.32;;;;;;;;;;5013410;28;20206;-73
2024/02/10 14:33:06;;;;;;;10.88;5.85;;;;;;;;;;5023503;28;20186;-72
2024/02/10 14:35:46;;;;;;;9.15;5.65;;;;;;;;;;5008302;28;20181;-71
2024/02/10 14:38:24;;;;;;;9.57;5.85;;;;;;;;;;5020272;28;20224;-70
2024/02/10 14:40:53;;;;;;;6.85;5.03;;;;;;;;;;5166479;23;20240;-66
2024/02/10 14:43:18;;;;;;;8.38;6.47;;;;;;;;;;5022532;28;20214;-67
2024/02/10 14:45:44;;;;;;;7.88;6.10;;;;;;;;;;5023813;28;20174;-66
2024/02/10 14:48:09;;;;;;;6.78;5.38;;;;;;;;;;5020356;28;20179;-68
2024/02/10 14:50:34;;;;;;;8.45;6.18;;;;;;;;;;5019730;28;20241;-67
2024/02/10 14:52:59;;;;;;;8.95;5.80;;;;;;;;;;5021509;28;20179;-67
2024/02/10 14:55:26;;;;;;;10.73;6.13;;;;;;;;;;5020483;28;20265;-67
2024/02/10 14:57:53;;;;;;;6.57;5.05;;;;;;;;;;5027993;28;20179;-67
2024/02/10 15:00:30;;;;;;;9.07;6.00;;;;;;;;;;5027340;28;20209;-66
2024/02/10 15:02:56;;;;;;;7.25;5.25;;;;;;;;;;5026357;28;20205;-66
2024/02/10 15:05:22;;;;;;;8.15;6.18;;;;;;;;;;5025394;28;20553;-67
2024/02/10 15:07:49;;;;;;;9.13;5.88;;;;;;;;;;5022853;28;20178;-66
2024/02/10 15:10:15;;;;;;;7.50;6.05;;;;;;;;;;5025810;28;20269;-66
2024/02/10 15:12:40;;;;;;;8.77;6.30;;;;;;;;;;5028066;28;20714;-67